createdAt,value
2023-04-28T00:00:40.381Z,100284.31
2023-04-28T00:05:36.878Z,100275.09
2023-04-28T00:10:33.719Z,100256.47
2023-04-28T00:15:30.305Z,100259.84
2023-04-28T00:20:26.707Z,100255.81
2023-04-28T00:25:23.120Z,100249.88
2023-04-28T00:30:19.554Z,100239.59
2023-04-28T00:35:16.323Z,100238.03
2023-04-28T00:40:12.960Z,100228.38
2023-04-28T00:45:09.577Z,100220.22
2023-04-28T00:50:06.672Z,100218.56
2023-04-28T00:55:04.911Z,100210.28
2023-04-28T01:00:02.131Z,100206.47
2023-04-28T01:04:59.260Z,100210.28
2023-04-28T01:09:56.126Z,100205.19
2023-04-28T01:14:52.652Z,100196.09
2023-04-28T01:19:49.002Z,100192.19
2023-04-28T01:24:45.815Z,100183.91
2023-04-28T01:29:42.250Z,100170.47
2023-04-28T01:34:38.627Z,100169.09
2023-04-28T01:39:36.191Z,100154.13
2023-04-28T01:44:32.661Z,100163.13
2023-04-28T01:49:29.016Z,100162.69
2023-04-28T01:54:25.988Z,100148.78
2023-04-28T01:59:22.384Z,100136.56
2023-04-28T02:04:18.922Z,100134.28
2023-04-28T02:09:15.466Z,100127.47
2023-04-28T02:14:11.839Z,100121.34
2023-04-28T02:19:08.228Z,100117.13
2023-04-28T02:24:04.981Z,100115.22
2023-04-28T02:29:01.518Z,100114.66
2023-04-28T02:33:57.863Z,100113.91
2023-04-28T02:38:54.175Z,100104.16
2023-04-28T02:43:50.726Z,100104.31
2023-04-28T02:48:47.060Z,100100.53
2023-04-28T02:53:43.428Z,100098.09
2023-04-28T02:58:39.813Z,100089.31
2023-04-28T03:03:36.407Z,100085.53
2023-04-28T03:08:33.048Z,100078.09
2023-04-28T03:13:30.147Z,100075.50
2023-04-28T03:18:26.564Z,100071.16
2023-04-28T03:23:22.934Z,100073.19
2023-04-28T03:28:19.486Z,100068.72
2023-04-28T03:33:16.212Z,100064.75
2023-04-28T03:38:12.580Z,100056.75
2023-04-28T03:43:09.024Z,100051.78
2023-04-28T03:48:05.540Z,100040.22
2023-04-28T03:53:02.165Z,100049.25
2023-04-28T03:57:58.541Z,100046.38
2023-04-28T04:02:55.052Z,100034.69
2023-04-28T04:07:51.729Z,100036.41
2023-04-28T04:12:48.182Z,100042.22
2023-04-28T04:17:44.748Z,100042.22
2023-04-28T04:22:41.224Z,100028.34
2023-04-28T04:27:37.702Z,100027.00
2023-04-28T04:32:34.134Z,100030.88
2023-04-28T04:37:30.885Z,100030.06
2023-04-28T04:42:27.366Z,100031.31
2023-04-28T04:47:24.085Z,100016.22
2023-04-28T04:52:20.559Z,100020.44
2023-04-28T04:57:17.355Z,100023.94
2023-04-28T05:02:13.880Z,100016.69
2023-04-28T05:07:10.365Z,100013.22
2023-04-28T05:12:06.957Z,99999.34
2023-04-28T05:17:03.407Z,99998.00
2023-04-28T05:22:01.118Z,99992.25
2023-04-28T05:26:59.445Z,100002.59
2023-04-28T05:31:55.979Z,100002.13
2023-04-28T05:36:53.029Z,100004.25
2023-04-28T05:41:49.466Z,99994.38
2023-04-28T05:46:45.927Z,99983.59
2023-04-28T05:51:42.456Z,99988.81
2023-04-28T05:56:39.033Z,99976.69
2023-04-28T06:01:35.633Z,99979.09
2023-04-28T06:06:34.150Z,99980.16
2023-04-28T06:11:30.656Z,99981.22
2023-04-28T06:16:27.216Z,99974.78
2023-04-28T06:21:25.002Z,99970.66
2023-04-28T06:26:21.582Z,99971.50
2023-04-28T06:31:18.000Z,99968.63
2023-04-28T06:36:16.811Z,99967.50
2023-04-28T06:41:13.417Z,99960.59
2023-04-28T06:46:11.229Z,99953.09
2023-04-28T06:51:07.836Z,99946.63
2023-04-28T06:56:05.414Z,99947.59
2023-04-28T07:01:03.965Z,99945.22
2023-04-28T07:06:00.585Z,99950.47
2023-04-28T07:10:57.100Z,99942.09
2023-04-28T07:15:53.506Z,99942.44
2023-04-28T07:20:50.017Z,99930.47
2023-04-28T07:25:46.506Z,99939.63
2023-04-28T07:30:42.901Z,99925.19
2023-04-28T07:35:39.388Z,99925.47
2023-04-28T07:40:35.840Z,99918.03
2023-04-28T07:45:32.453Z,99921.94
2023-04-28T07:50:29.234Z,99921.97
2023-04-28T07:55:25.927Z,99909.75
2023-04-28T08:00:22.354Z,99904.56
2023-04-28T08:05:19.103Z,99895.97
2023-04-28T08:10:15.776Z,99879.91
2023-04-28T08:15:12.493Z,99875.84
2023-04-28T08:20:09.436Z,99862.31
2023-04-28T08:25:06.276Z,99879.06
2023-04-28T08:30:02.825Z,99874.00
2023-04-28T08:34:59.205Z,99881.66
2023-04-28T08:40:02.063Z,99889.63
2023-04-28T08:45:01.850Z,99892.78
2023-04-28T08:50:03.269Z,99889.00
2023-04-28T08:55:02.696Z,99888.09
2023-04-28T08:59:59.243Z,99904.38
2023-04-28T09:04:55.741Z,99901.50
2023-04-28T09:10:21.860Z,99909.22
2023-04-28T09:15:42.811Z,99903.09
2023-04-28T09:20:39.372Z,99916.75
2023-04-28T09:25:35.860Z,99889.94
2023-04-28T09:30:39.724Z,99868.22
2023-04-28T09:35:43.634Z,99861.84
2023-04-28T09:40:55.658Z,99866.66
2023-04-28T09:45:53.040Z,99860.84
2023-04-28T09:50:50.169Z,99864.75
2023-04-28T09:55:47.876Z,99875.72
2023-04-28T10:00:44.502Z,99879.34
2023-04-28T10:05:41.837Z,99874.13
2023-04-28T10:10:38.659Z,99859.34
2023-04-28T10:15:37.056Z,99874.22
2023-04-28T10:20:34.754Z,99854.56
2023-04-28T10:25:36.566Z,99841.13
2023-04-28T10:30:34.063Z,99846.16
2023-04-28T10:35:30.656Z,99844.31
2023-04-28T10:40:44.594Z,99848.72
2023-04-28T10:45:56.156Z,99846.97
2023-04-28T10:51:15.256Z,99839.03
2023-04-28T10:56:13.152Z,99835.94
2023-04-28T11:01:22.003Z,99832.81
2023-04-28T11:06:25.604Z,99827.13
2023-04-28T11:11:34.809Z,99815.59
2023-04-28T11:16:32.777Z,99822.81
2023-04-28T11:21:29.536Z,99819.31
2023-04-28T11:26:27.313Z,99806.31
2023-04-28T11:31:26.360Z,99801.75
2023-04-28T11:36:28.649Z,99791.22
2023-04-28T11:41:26.675Z,99789.53
2023-04-28T11:46:24.925Z,99793.31
2023-04-28T11:51:34.805Z,99798.50
2023-04-28T11:56:32.100Z,99792.44
2023-04-28T12:01:28.877Z,99792.66
2023-04-28T12:06:25.510Z,99786.75
2023-04-28T12:11:22.717Z,99782.97
2023-04-28T12:16:38.421Z,99772.25
2023-04-28T12:21:36.286Z,99761.72
2023-04-28T12:26:34.467Z,99761.06
2023-04-28T12:31:31.117Z,99759.09
2023-04-28T12:36:27.965Z,99759.75
2023-04-28T12:41:25.319Z,99762.09
2023-04-28T12:46:21.744Z,99764.66
2023-04-28T12:51:18.181Z,99754.25
2023-04-28T12:56:14.522Z,99759.81
2023-04-28T13:01:10.990Z,99757.41
2023-04-28T13:06:07.657Z,99760.84
2023-04-28T13:11:16.255Z,99756.09
2023-04-28T13:16:19.113Z,99754.38
2023-04-28T13:21:15.720Z,99752.19
2023-04-28T13:26:12.082Z,99745.53
2023-04-28T13:31:08.950Z,99747.66
2023-04-28T13:36:05.860Z,99739.09
2023-04-28T13:41:03.117Z,99733.72
2023-04-28T13:45:59.617Z,99733.06
2023-04-28T13:50:56.072Z,99732.66
2023-04-28T13:55:54.110Z,99726.50
2023-04-28T14:00:50.740Z,99724.78
2023-04-28T14:05:57.558Z,99731.00
2023-04-28T14:10:54.083Z,99734.38
2023-04-28T14:15:59.011Z,99721.63
2023-04-28T14:20:56.395Z,99726.84
2023-04-28T14:25:56.960Z,99726.84
2023-04-28T14:30:54.464Z,99712.78
2023-04-28T14:35:50.964Z,99713.88
2023-04-28T14:40:47.688Z,99720.41
2023-04-28T14:45:44.735Z,99702.50
2023-04-28T14:50:43.077Z,99703.25
2023-04-28T14:55:39.521Z,99704.59
2023-04-28T15:00:36.281Z,99704.59
2023-04-28T15:05:32.910Z,99704.59
2023-04-28T15:10:37.217Z,99695.91
2023-04-28T15:15:34.449Z,99692.63
2023-04-28T15:20:33.238Z,99687.25
2023-04-28T15:25:29.746Z,99677.59
2023-04-28T15:30:26.383Z,99674.50
2023-04-28T15:35:22.812Z,99672.09
2023-04-28T15:40:19.643Z,99682.19
2023-04-28T15:45:18.450Z,99687.09
2023-04-28T15:50:16.109Z,99689.31
2023-04-28T15:55:15.461Z,99692.16
2023-04-28T16:00:12.738Z,99686.63
2023-04-28T16:05:09.988Z,99688.97
2023-04-28T16:10:08.874Z,99677.22
2023-04-28T16:15:07.272Z,99685.78
2023-04-28T16:20:08.367Z,99679.78
2023-04-28T16:25:05.664Z,99682.94
2023-04-28T16:30:02.628Z,99685.78
2023-04-28T16:34:59.787Z,99680.91
2023-04-28T16:39:56.631Z,99676.91
2023-04-28T16:44:53.404Z,99679.75
2023-04-28T16:49:49.974Z,99676.91
2023-04-28T16:54:46.749Z,99675.91
2023-04-28T16:59:43.145Z,99668.81
2023-04-28T17:04:39.763Z,99674.81
2023-04-28T17:09:36.236Z,99669.78
2023-04-28T17:14:32.582Z,99664.19
2023-04-28T17:19:28.963Z,99665.53
2023-04-28T17:24:25.391Z,99673.91
2023-04-28T17:29:22.116Z,99674.06
2023-04-28T17:34:19.994Z,99687.31
2023-04-28T17:39:16.834Z,99689.97
2023-04-28T17:44:13.297Z,99708.66
2023-04-28T17:49:09.722Z,99721.31
2023-04-28T17:54:09.559Z,99716.06
2023-04-28T17:59:06.198Z,99731.53
2023-04-28T18:04:02.623Z,99729.06
2023-04-28T18:08:59.009Z,99736.53
2023-04-28T18:13:55.669Z,99742.53
2023-04-28T18:18:52.048Z,99752.00
2023-04-28T18:23:48.479Z,99748.06
2023-04-28T18:28:48.161Z,99762.25
2023-04-28T18:33:45.072Z,99761.06
2023-04-28T18:38:41.504Z,99776.69
2023-04-28T18:43:37.853Z,99784.09
2023-04-28T18:48:34.400Z,99786.22
2023-04-28T18:53:31.920Z,99796.06
2023-04-28T18:58:28.439Z,99791.69
2023-04-28T19:03:25.046Z,99800.72
2023-04-28T19:08:21.544Z,99806.88
2023-04-28T19:13:17.945Z,99813.38
2023-04-28T19:18:14.497Z,99819.69
2023-04-28T19:23:11.198Z,99826.72
2023-04-28T19:28:08.367Z,99829.72
2023-04-28T19:33:04.876Z,99842.06
2023-04-28T19:38:01.297Z,99844.75
2023-04-28T19:42:57.756Z,99844.03
2023-04-28T19:47:55.471Z,99852.06
2023-04-28T19:52:51.981Z,99848.72
2023-04-28T19:57:48.388Z,99850.66
2023-04-28T20:02:44.844Z,99850.84
2023-04-28T20:07:42.021Z,99858.13
2023-04-28T20:12:38.966Z,99857.19
2023-04-28T20:17:35.518Z,99862.16
2023-04-28T20:22:32.230Z,99879.16
2023-04-28T20:27:28.577Z,99877.59
2023-04-28T20:32:25.045Z,99887.03
2023-04-28T20:37:22.743Z,99890.81
2023-04-28T20:42:19.302Z,99899.13
2023-04-28T20:47:15.665Z,99899.31
2023-04-28T20:52:12.015Z,99910.94
2023-04-28T20:57:09.336Z,99910.25
2023-04-28T21:02:05.994Z,99911.25
2023-04-28T21:07:02.460Z,99909.44
2023-04-28T21:11:58.840Z,99913.06
2023-04-28T21:16:55.439Z,99908.03
2023-04-28T21:21:52.356Z,99910.84
2023-04-28T21:26:48.890Z,99916.47
2023-04-28T21:31:46.068Z,99925.44
2023-04-28T21:36:42.944Z,99935.44
2023-04-28T21:41:39.508Z,99931.94
2023-04-28T21:46:36.151Z,99922.78
2023-04-28T21:51:32.831Z,99917.56
2023-04-28T21:56:29.255Z,99921.25
2023-04-28T22:01:27.900Z,99913.09
2023-04-28T22:06:24.994Z,99909.44
2023-04-28T22:11:21.368Z,99896.94
2023-04-28T22:16:17.834Z,99897.91
2023-04-28T22:21:14.472Z,99896.22
2023-04-28T22:26:11.424Z,99902.41
2023-04-28T22:31:08.144Z,99893.72
2023-04-28T22:36:05.082Z,99901.59
2023-04-28T22:41:02.188Z,99915.25
2023-04-28T22:45:58.582Z,99923.22
2023-04-28T22:50:54.943Z,99942.75
2023-04-28T22:55:51.434Z,99941.47
2023-04-28T23:00:47.913Z,99936.53
2023-04-28T23:05:46.560Z,99925.19
2023-04-28T23:10:42.938Z,99927.13
2023-04-28T23:15:39.441Z,99920.16
2023-04-28T23:20:35.869Z,99906.69
2023-04-28T23:25:32.342Z,99902.03
2023-04-28T23:30:28.720Z,99895.16
2023-04-28T23:35:25.070Z,99885.34
2023-04-28T23:40:21.500Z,99892.66
2023-04-28T23:45:17.920Z,99892.78
2023-04-28T23:50:14.479Z,99889.25
2023-04-28T23:55:11.516Z,99896.00
